THY677 LTFM-LGAV
Flight info
| Callsign | THY677 |
|---|---|
| Flight time | N/A |
| Altitude | 34000 |
| Route | IVGUS1D/35L IVGUS UY226 BIG UN604 OGSIL |
| Aircraft | A339/H-SADE1E2E3GHIJ3J5M1P2RWXY/LB2D1 |
Departure
| Time | 2026-05-04 11:10 |
|---|---|
| Airport | İstanbul Airport (LTFM) |
Arrival
| Time | N/A |
|---|---|
| Airport | Athens Eleftherios Venizelos International Airport (LGAV) |
| Time | Latitude | Longitude | Altitude | Speed | Heading |
|---|---|---|---|---|---|
| 2026-05-04 10:37 | 41.26771 | 28.73534 | 342 ft | 0 kts | 180° |
| 2026-05-04 10:59 | 41.26785 | 28.73534 | 343 ft | 2 kts | 180° |
| 2026-05-04 10:59 | 41.26800 | 28.73534 | 343 ft | 2 kts | 181° |
| 2026-05-04 10:59 | 41.26814 | 28.73536 | 343 ft | 2 kts | 198° |
| 2026-05-04 11:00 | 41.26828 | 28.73544 | 343 ft | 2 kts | 210° |
| 2026-05-04 11:01 | 41.26862 | 28.73619 | 343 ft | 0 kts | 270° |
| 2026-05-04 11:05 | 41.26858 | 28.73335 | 343 ft | 0 kts | 270° |
| 2026-05-04 11:06 | 41.26858 | 28.73334 | 343 ft | 0 kts | 270° |
| 2026-05-04 11:06 | 41.26858 | 28.73303 | 343 ft | 6 kts | 270° |
| 2026-05-04 11:06 | 41.26858 | 28.73218 | 343 ft | 11 kts | 269° |
| 2026-05-04 11:06 | 41.26856 | 28.73097 | 343 ft | 13 kts | 269° |
| 2026-05-04 11:08 | 41.26749 | 28.72518 | 343 ft | 6 kts | 358° |
| 2026-05-04 11:10 | 41.31288 | 28.72488 | 2400 ft | 143 kts | 359° |
| 2026-05-04 11:12 | 41.38167 | 28.66408 | 5553 ft | 267 kts | 275° |
| 2026-05-04 11:12 | 41.38129 | 28.63985 | 6367 ft | 268 kts | 275° |
| 2026-05-04 11:12 | 41.38094 | 28.61500 | 7140 ft | 272 kts | 276° |
| 2026-05-04 11:12 | 41.37933 | 28.58973 | 7853 ft | 284 kts | 260° |
| 2026-05-04 11:13 | 41.36941 | 28.56652 | 8550 ft | 304 kts | 230° |
| 2026-05-04 11:13 | 41.35131 | 28.55134 | 9270 ft | 317 kts | 198° |
| 2026-05-04 11:13 | 41.32933 | 28.54839 | 9990 ft | 321 kts | 178° |
| 2026-05-04 11:13 | 41.30671 | 28.54601 | 10536 ft | 333 kts | 198° |
| 2026-05-04 11:14 | 41.29948 | 28.54246 | 10657 ft | 338 kts | 209° |
| 2026-05-04 11:14 | 41.26653 | 28.49830 | 11818 ft | 346 kts | 238° |
| 2026-05-04 11:16 | 41.13400 | 28.31009 | 17285 ft | 381 kts | 225° |
| 2026-05-04 11:16 | 41.11374 | 28.28677 | 17994 ft | 386 kts | 221° |
| 2026-05-04 11:16 | 41.09330 | 28.26444 | 18705 ft | 388 kts | 221° |
| 2026-05-04 11:17 | 41.07226 | 28.24155 | 19442 ft | 389 kts | 221° |
| 2026-05-04 11:17 | 41.05152 | 28.21890 | 20113 ft | 393 kts | 220° |
| 2026-05-04 11:19 | 40.89934 | 28.05095 | 23948 ft | 421 kts | 220° |
| 2026-05-04 11:19 | 40.87701 | 28.02635 | 24018 ft | 423 kts | 220° |
| 2026-05-04 11:19 | 40.85430 | 28.00135 | 24020 ft | 422 kts | 220° |
| 2026-05-04 11:19 | 40.83193 | 27.97676 | 24130 ft | 427 kts | 220° |
| 2026-05-04 11:20 | 40.80888 | 27.95136 | 24684 ft | 429 kts | 220° |
| 2026-05-04 11:20 | 40.78600 | 27.92619 | 25339 ft | 429 kts | 220° |
| 2026-05-04 11:20 | 40.76308 | 27.90101 | 25903 ft | 431 kts | 220° |
| 2026-05-04 11:20 | 40.74010 | 27.87578 | 26402 ft | 435 kts | 219° |
| 2026-05-04 11:22 | 40.57383 | 27.69407 | 29628 ft | 455 kts | 219° |
| 2026-05-04 11:22 | 40.54954 | 27.66761 | 30048 ft | 458 kts | 219° |
| 2026-05-04 11:23 | 40.52507 | 27.64100 | 30488 ft | 460 kts | 219° |
| 2026-05-04 11:23 | 40.50027 | 27.61406 | 31040 ft | 458 kts | 219° |
| 2026-05-04 11:24 | 40.35488 | 27.45668 | 33885 ft | 454 kts | 219° |
| 2026-05-04 11:25 | 40.33054 | 27.43041 | 34040 ft | 455 kts | 219° |
| 2026-05-04 11:25 | 40.28175 | 27.37781 | 34052 ft | 455 kts | 219° |
| 2026-05-04 11:27 | 40.05487 | 27.15428 | 34043 ft | 454 kts | 214° |
| 2026-05-04 11:28 | 40.00312 | 27.10689 | 34051 ft | 454 kts | 214° |
| 2026-05-04 11:28 | 39.95178 | 27.05991 | 34057 ft | 454 kts | 214° |
| 2026-05-04 11:29 | 39.89992 | 27.01260 | 34054 ft | 454 kts | 214° |
| 2026-05-04 11:29 | 39.84846 | 26.96570 | 34053 ft | 454 kts | 214° |